Time;durP1;ratioP1;P1;durP2;ratioP2;P2;SDS_P1;SDS_P2;PMS_P1;PMS_P2;Temp;Humidity;BMP_temperature;BMP_pressure;BME280_temperature;BME280_humidity;BME280_pressure;Samples;Min_cycle;Max_cycle;Signal;HPM_P1;HPM_P2
2021/12/01 00:00:33;;;;;;;10.07;6.50;;;9.60;99.90;;;;;;5055214;28;20063;-88
2021/12/01 00:02:59;;;;;;;11.07;7.30;;;9.60;99.90;;;;;;5038624;28;20040;-87
2021/12/01 00:05:28;;;;;;;10.83;7.10;;;9.60;99.90;;;;;;5054807;28;20032;-88
2021/12/01 00:07:55;;;;;;;11.02;7.13;;;9.50;99.90;;;;;;5038515;28;20089;-89
2021/12/01 00:10:23;;;;;;;10.03;6.47;;;9.50;99.90;;;;;;5072593;28;20074;-88
2021/12/01 00:12:49;;;;;;;14.00;9.10;;;9.50;99.90;;;;;;5038354;28;20039;-87
2021/12/01 00:15:15;;;;;;;12.97;9.30;;;9.50;99.90;;;;;;5054590;28;20046;-87
2021/12/01 00:17:41;;;;;;;12.20;7.57;;;9.50;99.90;;;;;;5054576;28;20484;-88
2021/12/01 00:20:13;;;;;;;10.73;7.00;;;9.50;99.90;;;;;;5037872;28;20445;-87
2021/12/01 00:22:40;;;;;;;11.03;7.37;;;9.50;99.90;;;;;;5038008;28;20047;-88
2021/12/01 00:25:08;;;;;;;11.73;7.87;;;9.40;99.90;;;;;;5037865;28;20021;-87
2021/12/01 00:27:34;;;;;;;10.17;6.43;;;9.40;99.90;;;;;;5037821;28;20029;-87
2021/12/01 00:30:00;;;;;;;9.23;5.43;;;9.40;99.90;;;;;;5054393;28;20275;-87
2021/12/01 00:32:26;;;;;;;7.80;5.40;;;9.50;99.90;;;;;;5037968;28;20043;-87
2021/12/01 00:34:52;;;;;;;9.20;5.20;;;9.50;99.90;;;;;;5054115;28;20029;-87
2021/12/01 00:37:18;;;;;;;9.43;5.37;;;9.50;99.90;;;;;;5037908;28;20035;-87
2021/12/01 00:39:44;;;;;;;8.00;4.93;;;9.40;99.90;;;;;;5054171;28;20032;-88
2021/12/01 00:42:11;;;;;;;9.33;5.40;;;9.50;99.90;;;;;;5038339;28;20444;-87
2021/12/01 00:44:45;;;;;;;9.60;5.90;;;9.50;99.90;;;;;;5037702;28;20028;-87
2021/12/01 00:47:12;;;;;;;8.20;4.70;;;9.50;99.90;;;;;;5037924;28;20473;-88
2021/12/01 00:49:39;;;;;;;9.00;5.40;;;9.50;99.90;;;;;;5037081;28;20399;-87
2021/12/01 00:52:04;;;;;;;8.17;5.00;;;9.50;99.90;;;;;;5054245;28;20033;-88
2021/12/01 00:54:30;;;;;;;7.90;4.27;;;9.50;99.90;;;;;;5037243;28;20036;-88
2021/12/01 00:56:56;;;;;;;6.93;4.37;;;9.50;99.90;;;;;;5054132;28;20031;-87
2021/12/01 00:59:22;;;;;;;8.23;4.70;;;9.50;99.90;;;;;;5037308;28;20067;-88
2021/12/01 01:01:49;;;;;;;7.43;4.23;;;9.50;99.90;;;;;;5053868;28;20123;-87
2021/12/01 01:04:14;;;;;;;5.43;3.67;;;9.40;99.90;;;;;;5053694;28;20040;-87
2021/12/01 01:06:42;;;;;;;5.03;3.57;;;9.50;99.90;;;;;;5053677;28;20025;-87
2021/12/01 01:09:08;;;;;;;4.80;2.50;;;9.50;99.90;;;;;;5036552;28;20024;-88
2021/12/01 01:17:07;;;;;;;3.60;1.70;;;9.50;99.90;;;;;;5053803;28;20028;-88
2021/12/01 01:19:38;;;;;;;3.70;2.35;;;9.50;99.90;;;;;;5036652;28;20032;-88
2021/12/01 01:22:06;;;;;;;6.10;2.67;;;9.40;99.90;;;;;;5053827;28;20035;-88
2021/12/01 01:24:33;;;;;;;4.65;2.78;;;9.50;99.90;;;;;;5036940;28;20097;-87
2021/12/01 01:26:59;;;;;;;5.93;2.70;;;9.40;99.90;;;;;;5036777;28;20045;-88
2021/12/01 01:29:25;;;;;;;5.07;3.00;;;9.40;99.90;;;;;;5053427;28;20037;-88
2021/12/01 01:31:54;;;;;;;4.43;2.23;;;9.40;99.90;;;;;;5053573;28;20036;-88
2021/12/01 01:34:21;;;;;;;4.97;2.30;;;9.40;99.90;;;;;;5036532;28;20062;-88
2021/12/01 01:36:47;;;;;;;2.73;1.80;;;9.50;99.90;;;;;;5053680;28;20572;-88
2021/12/01 01:39:13;;;;;;;4.43;2.33;;;9.50;99.90;;;;;;5036721;28;20052;-87
2021/12/01 01:41:38;;;;;;;4.23;2.50;;;9.50;99.90;;;;;;5036756;28;20054;-88
2021/12/01 01:44:04;;;;;;;3.90;2.50;;;9.50;99.90;;;;;;5037083;28;20063;-88
2021/12/01 01:46:32;;;;;;;3.70;2.20;;;9.50;99.90;;;;;;5053525;28;20021;-87
2021/12/01 01:49:05;;;;;;;3.83;2.00;;;9.50;99.90;;;;;;5053078;28;20551;-87
2021/12/01 01:51:32;;;;;;;4.03;1.73;;;9.50;99.90;;;;;;5036910;28;20036;-88
2021/12/01 01:53:58;;;;;;;3.23;2.00;;;9.50;99.90;;;;;;5053249;28;20029;-87
2021/12/01 01:56:26;;;;;;;2.40;1.67;;;9.50;99.90;;;;;;5053254;28;20089;-88
2021/12/01 01:58:52;;;;;;;3.03;1.80;;;9.50;99.90;;;;;;5052964;28;20032;-87
2021/12/01 02:03:57;;;;;;;2.28;1.45;;;9.50;99.90;;;;;;5053040;28;20033;-87
2021/12/01 02:06:23;;;;;;;1.80;1.30;;;9.50;99.90;;;;;;5036484;28;20029;-87
2021/12/01 02:08:51;;;;;;;2.43;1.70;;;9.50;99.90;;;;;;5036796;28;20029;-88
2021/12/01 02:11:18;;;;;;;3.57;2.10;;;9.40;99.90;;;;;;5036669;28;20034;-87
2021/12/01 02:13:44;;;;;;;4.07;2.00;;;9.50;99.90;;;;;;5036458;28;20033;-87
2021/12/01 02:16:12;;;;;;;4.57;2.50;;;9.50;99.90;;;;;;5052964;28;20021;-87
2021/12/01 02:18:39;;;;;;;3.47;2.00;;;9.40;99.90;;;;;;5052662;28;20036;-87
2021/12/01 02:21:09;;;;;;;3.17;1.70;;;9.40;99.90;;;;;;5038655;28;20043;-87
2021/12/01 02:23:36;;;;;;;2.20;1.40;;;9.40;99.90;;;;;;5040187;28;20025;-87
2021/12/01 02:26:04;;;;;;;2.23;1.50;;;9.40;99.90;;;;;;5040138;28;20493;-88
2021/12/01 02:28:30;;;;;;;3.10;1.60;;;9.30;99.90;;;;;;5039453;28;20025;-87
2021/12/01 02:30:57;;;;;;;3.67;1.80;;;9.40;99.90;;;;;;5056446;28;20032;-87
2021/12/01 02:33:23;;;;;;;2.57;1.57;;;9.50;99.90;;;;;;5039744;28;20052;-88
2021/12/01 02:35:49;;;;;;;2.63;1.53;;;9.40;99.90;;;;;;5056626;28;20060;-87
2021/12/01 02:38:16;;;;;;;4.03;1.77;;;9.40;99.90;;;;;;5039711;28;20074;-88
2021/12/01 02:40:41;;;;;;;3.80;1.80;;;9.40;99.90;;;;;;5039811;28;20036;-87
2021/12/01 02:43:07;;;;;;;3.57;1.97;;;9.40;99.90;;;;;;5039682;28;20025;-88
2021/12/01 02:45:33;;;;;;;3.47;1.87;;;9.40;99.90;;;;;;5039924;28;20028;-87
2021/12/01 02:47:59;;;;;;;2.37;1.70;;;9.40;99.90;;;;;;5056437;28;20362;-89
2021/12/01 02:50:24;;;;;;;3.43;2.10;;;9.40;99.90;;;;;;5039369;28;20362;-87
2021/12/01 02:52:50;;;;;;;3.27;2.10;;;9.30;99.90;;;;;;5039825;28;20082;-87
2021/12/01 02:55:19;;;;;;;2.73;1.77;;;9.40;99.90;;;;;;5039416;28;20037;-88
2021/12/01 02:57:53;;;;;;;4.25;2.17;;;9.40;99.90;;;;;;5039664;28;20033;-87
2021/12/01 03:00:21;;;;;;;2.70;1.97;;;9.40;99.90;;;;;;5039454;28;20040;-88
2021/12/01 03:02:48;;;;;;;3.20;1.97;;;9.40;99.90;;;;;;5039601;28;20342;-88
2021/12/01 03:05:16;;;;;;;3.67;2.17;;;9.40;99.90;;;;;;5039213;28;20120;-88
2021/12/01 03:07:42;;;;;;;3.73;2.50;;;9.30;99.90;;;;;;5039137;28;20055;-88
2021/12/01 03:10:08;;;;;;;5.33;3.03;;;9.30;99.90;;;;;;5039545;28;20039;-88
2021/12/01 03:12:37;;;;;;;4.50;2.90;;;9.40;99.90;;;;;;5074048;28;20487;-87
2021/12/01 03:15:06;;;;;;;5.00;2.97;;;9.40;99.90;;;;;;5039359;28;20458;-87
2021/12/01 03:17:32;;;;;;;6.00;2.90;;;9.30;99.90;;;;;;5039003;28;20028;-88
2021/12/01 03:19:58;;;;;;;5.50;3.60;;;9.30;99.90;;;;;;5038919;28;20086;-88
2021/12/01 03:22:25;;;;;;;5.03;3.63;;;9.30;99.90;;;;;;5039368;28;20039;-87
2021/12/01 03:24:53;;;;;;;4.90;3.60;;;9.30;99.90;;;;;;5073665;28;20086;-88
2021/12/01 03:27:20;;;;;;;5.20;4.03;;;9.30;99.90;;;;;;5073934;28;20050;-88
2021/12/01 03:29:47;;;;;;;6.83;3.53;;;9.40;99.90;;;;;;5055221;28;20029;-87
2021/12/01 03:32:13;;;;;;;7.40;4.03;;;9.30;99.90;;;;;;5038383;28;20024;-87
2021/12/01 03:34:41;;;;;;;5.23;3.50;;;9.30;99.90;;;;;;5038756;28;20417;-87
2021/12/01 03:37:08;;;;;;;6.83;4.13;;;9.30;99.90;;;;;;5075146;28;20108;-87
2021/12/01 03:39:34;;;;;;;6.87;4.33;;;9.30;99.90;;;;;;5038533;28;20477;-87
2021/12/01 03:42:00;;;;;;;5.80;4.13;;;9.30;99.90;;;;;;5038837;28;20032;-88
2021/12/01 03:44:26;;;;;;;7.83;4.57;;;9.30;99.90;;;;;;5056023;28;20475;-87
2021/12/01 03:46:52;;;;;;;7.00;4.40;;;9.20;99.90;;;;;;5055713;28;20066;-88
2021/12/01 03:49:19;;;;;;;5.67;3.70;;;9.20;99.90;;;;;;5054273;28;20023;-88
2021/12/01 03:51:45;;;;;;;6.80;4.87;;;9.20;99.90;;;;;;5055194;28;20561;-87
2021/12/01 03:54:11;;;;;;;8.97;5.07;;;9.20;99.90;;;;;;5055031;28;20484;-88
2021/12/01 03:56:37;;;;;;;8.17;5.10;;;9.10;99.90;;;;;;5038399;28;20075;-87
2021/12/01 03:59:04;;;;;;;7.70;4.53;;;9.10;99.90;;;;;;5037923;28;20036;-88
2021/12/01 04:01:30;;;;;;;7.87;5.30;;;9.10;99.90;;;;;;5038216;28;20528;-87
2021/12/01 04:03:58;;;;;;;7.87;5.17;;;9.00;99.90;;;;;;5054454;28;20404;-89
2021/12/01 04:06:27;;;;;;;7.03;4.50;;;9.00;99.90;;;;;;5055009;28;20029;-87
2021/12/01 04:08:55;;;;;;;8.47;5.53;;;9.00;99.90;;;;;;5054672;28;20032;-87
2021/12/01 04:11:21;;;;;;;9.70;5.73;;;9.00;99.90;;;;;;5078758;28;20028;-86
2021/12/01 04:13:48;;;;;;;7.83;5.57;;;8.90;99.90;;;;;;5038503;28;20453;-86
2021/12/01 04:16:13;;;;;;;8.03;5.13;;;9.00;99.90;;;;;;5054799;28;20043;-87
2021/12/01 04:18:39;;;;;;;9.13;5.30;;;8.90;99.90;;;;;;5037028;28;20036;-88
2021/12/01 04:21:05;;;;;;;9.67;6.03;;;8.90;99.90;;;;;;5037833;28;20032;-89
2021/12/01 04:23:34;;;;;;;8.97;6.77;;;8.90;99.90;;;;;;5037688;28;20039;-88
2021/12/01 04:26:01;;;;;;;8.18;6.47;;;9.30;99.90;;;;;;5072244;28;20048;-88
2021/12/01 04:28:27;;;;;;;10.03;6.20;;;9.40;99.90;;;;;;5037635;28;20032;-91
2021/12/01 04:30:53;;;;;;;8.93;5.53;;;9.30;99.90;;;;;;5054534;28;20078;-88
2021/12/01 04:33:18;;;;;;;8.80;5.30;;;9.20;99.90;;;;;;5053732;28;20025;-88
2021/12/01 04:35:46;;;;;;;7.60;5.40;;;9.20;99.90;;;;;;5072049;28;20024;-88
2021/12/01 04:38:12;;;;;;;7.20;4.87;;;9.10;99.90;;;;;;5037000;28;20032;-89
2021/12/01 04:40:38;;;;;;;6.73;4.57;;;9.00;99.90;;;;;;5037470;28;20116;-88
2021/12/01 04:43:04;;;;;;;8.17;4.47;;;9.00;99.90;;;;;;5036934;28;20112;-88
2021/12/01 04:45:31;;;;;;;7.17;4.83;;;8.90;99.90;;;;;;5070907;28;20036;-88
2021/12/01 04:47:57;;;;;;;8.73;4.10;;;8.90;99.90;;;;;;5053245;28;20033;-89
2021/12/01 04:50:26;;;;;;;7.03;3.77;;;8.90;99.90;;;;;;5053306;28;20032;-88
2021/12/01 04:52:54;;;;;;;5.77;3.60;;;8.90;99.90;;;;;;5053828;28;20032;-88
2021/12/01 04:55:19;;;;;;;6.73;3.97;;;8.90;99.90;;;;;;5053303;28;20104;-88
2021/12/01 04:57:46;;;;;;;5.93;3.50;;;8.90;99.90;;;;;;5036365;28;20203;-88
2021/12/01 05:00:17;;;;;;;7.23;3.80;;;9.00;99.90;;;;;;5036993;28;20414;-88
2021/12/01 05:02:43;;;;;;;7.00;3.50;;;8.90;99.90;;;;;;5053657;28;20390;-87
2021/12/01 05:05:08;;;;;;;5.70;3.50;;;8.90;99.90;;;;;;5036652;28;20028;-88
2021/12/01 05:07:34;;;;;;;6.33;3.20;;;8.90;99.90;;;;;;5036391;28;20020;-88
2021/12/01 05:10:00;;;;;;;5.53;3.20;;;8.80;99.90;;;;;;5036802;28;20115;-88
2021/12/01 05:12:26;;;;;;;5.77;3.40;;;8.90;99.90;;;;;;5037102;28;20134;-89
2021/12/01 05:14:52;;;;;;;6.93;3.20;;;8.90;99.90;;;;;;5037033;28;20112;-88
2021/12/01 05:17:19;;;;;;;4.50;3.20;;;8.80;99.90;;;;;;5037002;28;20028;-88
2021/12/01 05:19:45;;;;;;;5.43;3.03;;;8.80;99.90;;;;;;5052713;28;20036;-89
2021/12/01 05:22:11;;;;;;;6.27;3.23;;;8.80;99.90;;;;;;5036783;28;20081;-89
2021/12/01 05:24:36;;;;;;;5.13;3.00;;;8.80;99.90;;;;;;5071246;28;20024;-89
2021/12/01 05:27:04;;;;;;;3.87;2.73;;;8.80;99.90;;;;;;5053286;28;20527;-88
2021/12/01 05:29:30;;;;;;;3.97;2.67;;;8.80;99.90;;;;;;5036126;28;20128;-89
2021/12/01 05:31:56;;;;;;;4.07;2.57;;;8.80;99.90;;;;;;5053181;28;20052;-88
2021/12/01 05:34:24;;;;;;;9.03;2.73;;;8.90;99.90;;;;;;5053048;28;20029;-88
2021/12/01 05:36:50;;;;;;;4.03;2.20;;;8.90;99.90;;;;;;5053191;28;20074;-88
2021/12/01 05:39:17;;;;;;;4.53;2.70;;;8.90;99.90;;;;;;5035965;28;20475;-88
2021/12/01 05:41:43;;;;;;;4.43;2.10;;;8.90;99.90;;;;;;5036621;28;20036;-89
2021/12/01 05:44:09;;;;;;;5.20;2.47;;;8.90;99.90;;;;;;5053049;28;20495;-89
2021/12/01 05:46:35;;;;;;;3.33;2.13;;;8.90;99.90;;;;;;5036368;28;20025;-89
2021/12/01 05:49:02;;;;;;;4.20;2.20;;;8.90;99.90;;;;;;5035494;28;20028;-89
2021/12/01 05:51:28;;;;;;;5.50;2.23;;;8.90;99.90;;;;;;5036760;28;20037;-89
2021/12/01 05:53:54;;;;;;;5.37;2.30;;;8.90;99.90;;;;;;5036562;28;20035;-88
2021/12/01 05:56:20;;;;;;;3.07;2.00;;;8.90;99.90;;;;;;5035946;28;20036;-90
2021/12/01 05:58:45;;;;;;;3.40;2.00;;;8.90;99.90;;;;;;5052643;28;20064;-90
2021/12/01 06:01:11;;;;;;;2.70;1.67;;;8.90;99.90;;;;;;5036334;28;20032;-90
2021/12/01 06:03:39;;;;;;;3.97;1.60;;;8.90;99.90;;;;;;5070884;28;20477;-90
2021/12/01 06:06:05;;;;;;;3.70;1.70;;;8.90;99.90;;;;;;5053021;28;20032;-89
2021/12/01 06:08:30;;;;;;;4.23;1.67;;;8.90;99.90;;;;;;5036503;28;20024;-92
2021/12/01 06:10:56;;;;;;;5.40;2.07;;;8.90;99.90;;;;;;5037985;28;20048;-92
2021/12/01 06:13:24;;;;;;;3.90;1.83;;;8.90;99.90;;;;;;5037666;28;20032;-89
2021/12/01 06:15:50;;;;;;;4.80;1.90;;;8.90;99.90;;;;;;5036365;28;20040;-88
2021/12/01 06:18:18;;;;;;;2.93;1.40;;;9.00;99.90;;;;;;5051976;28;20029;-88
2021/12/01 06:20:46;;;;;;;2.60;1.50;;;9.00;99.90;;;;;;5053900;28;20101;-89
2021/12/01 06:23:12;;;;;;;4.97;1.50;;;9.00;99.90;;;;;;5036802;28;20037;-89
2021/12/01 06:25:38;;;;;;;2.33;1.50;;;9.00;99.90;;;;;;5053249;28;20407;-87
2021/12/01 06:28:03;;;;;;;3.33;1.70;;;9.00;99.90;;;;;;5036226;28;20032;-87
2021/12/01 06:30:34;;;;;;;3.17;1.53;;;9.00;99.90;;;;;;5037231;28;20035;-87
2021/12/01 06:33:00;;;;;;;2.87;1.30;;;9.00;99.90;;;;;;5037340;28;20033;-88
2021/12/01 06:35:26;;;;;;;3.83;1.53;;;9.00;99.90;;;;;;5052911;28;20028;-86
2021/12/01 06:37:54;;;;;;;2.50;1.43;;;9.00;99.90;;;;;;5037289;28;20082;-89
2021/12/01 06:40:21;;;;;;;3.67;1.47;;;9.00;99.90;;;;;;5053773;28;20029;-87
2021/12/01 06:42:47;;;;;;;3.37;1.53;;;9.00;99.90;;;;;;5035197;28;20071;-87
2021/12/01 06:45:13;;;;;;;5.13;1.50;;;9.00;99.90;;;;;;5034094;28;20031;-88
2021/12/01 06:47:39;;;;;;;4.80;1.77;;;9.00;99.90;;;;;;5050623;28;20021;-87
2021/12/01 06:50:07;;;;;;;2.63;1.63;;;9.00;99.90;;;;;;5068448;28;20025;-87
2021/12/01 06:52:33;;;;;;;3.20;1.70;;;9.00;99.90;;;;;;5034572;28;20033;-88
2021/12/01 06:55:00;;;;;;;2.57;1.30;;;8.90;99.90;;;;;;5050767;28;20029;-88
2021/12/01 06:57:26;;;;;;;2.40;1.50;;;8.90;99.90;;;;;;5034304;28;20068;-87
2021/12/01 06:59:52;;;;;;;2.80;1.40;;;8.90;99.90;;;;;;5035872;28;20032;-87
2021/12/01 07:02:18;;;;;;;2.20;1.37;;;8.80;99.90;;;;;;5052561;28;20141;-87
2021/12/01 07:04:44;;;;;;;2.17;1.17;;;8.90;99.90;;;;;;5052157;28;20024;-88
2021/12/01 07:07:11;;;;;;;4.03;1.70;;;8.80;99.90;;;;;;5053257;28;20664;-87
2021/12/01 07:09:36;;;;;;;14.67;5.97;;;8.90;99.90;;;;;;5056398;28;20032;-87
2021/12/01 07:12:03;;;;;;;6.53;1.80;;;9.60;99.90;;;;;;5041032;28;20090;-85
2021/12/01 07:14:29;;;;;;;2.33;1.60;;;10.30;99.90;;;;;;5039286;28;20120;-87
2021/12/01 07:16:55;;;;;;;3.50;1.40;;;10.80;99.90;;;;;;5073357;28;20123;-89
2021/12/01 07:19:21;;;;;;;1.70;0.90;;;10.80;99.90;;;;;;5059561;28;20109;-86
2021/12/01 07:21:47;;;;;;;1.63;0.83;;;10.50;99.90;;;;;;5075979;28;20567;-86
2021/12/01 07:24:15;;;;;;;1.40;0.73;;;10.20;99.90;;;;;;5059008;28;20036;-87
2021/12/01 07:26:42;;;;;;;1.00;0.60;;;10.00;99.90;;;;;;5059390;28;20028;-88
2021/12/01 07:29:08;;;;;;;2.20;0.70;;;9.80;99.90;;;;;;5058761;28;20417;-87
2021/12/01 07:31:34;;;;;;;1.13;0.70;;;9.60;99.90;;;;;;5075703;28;20522;-89
2021/12/01 07:34:00;;;;;;;1.73;0.70;;;9.60;99.90;;;;;;5058483;28;20035;-88
2021/12/01 07:36:26;;;;;;;2.13;0.73;;;9.60;99.90;;;;;;5075111;28;20060;-87
2021/12/01 07:38:53;;;;;;;1.97;0.90;;;9.50;99.90;;;;;;5075046;28;20120;-87
2021/12/01 07:41:20;;;;;;;2.13;0.83;;;9.60;99.90;;;;;;5058525;28;20032;-87
2021/12/01 07:43:46;;;;;;;3.87;1.03;;;9.50;99.90;;;;;;5075883;28;20028;-90
2021/12/01 07:46:12;;;;;;;1.20;0.83;;;9.60;99.90;;;;;;5059142;28;20024;-88
2021/12/01 07:48:38;;;;;;;2.67;0.70;;;9.70;99.90;;;;;;5075123;28;20039;-91
2021/12/01 07:51:04;;;;;;;1.10;0.60;;;9.60;99.90;;;;;;5058866;28;20484;-89
2021/12/01 07:53:30;;;;;;;2.90;0.77;;;9.60;99.90;;;;;;5075479;28;20378;-88
2021/12/01 07:55:56;;;;;;;2.20;1.20;;;9.60;99.90;;;;;;5076497;28;20062;-89
2021/12/01 07:58:21;;;;;;;2.73;1.53;;;9.50;99.90;;;;;;5075400;28;20123;-89
2021/12/01 08:00:47;;;;;;;3.30;1.10;;;9.50;99.90;;;;;;5076110;28;20119;-88
2021/12/01 08:03:13;;;;;;;3.03;0.90;;;9.50;99.90;;;;;;5075533;28;20032;-88
2021/12/01 08:05:39;;;;;;;2.53;0.80;;;9.40;99.90;;;;;;5075153;28;20448;-88
2021/12/01 08:08:05;;;;;;;1.30;0.70;;;9.40;99.90;;;;;;5075169;28;20028;-87
2021/12/01 08:10:32;;;;;;;1.73;0.63;;;9.40;99.90;;;;;;5058248;28;20032;-87
2021/12/01 08:13:00;;;;;;;1.47;0.70;;;9.30;99.90;;;;;;5058530;28;20032;-87
2021/12/01 08:15:27;;;;;;;2.20;0.87;;;9.40;99.90;;;;;;5075044;28;20365;-88
2021/12/01 08:17:53;;;;;;;1.63;0.53;;;9.30;99.90;;;;;;5074951;28;20442;-89
2021/12/01 08:20:20;;;;;;;0.90;0.60;;;9.30;99.90;;;;;;5058969;28;20066;-89
2021/12/01 08:22:46;;;;;;;1.27;0.80;;;9.30;99.90;;;;;;5074952;28;20036;-88
2021/12/01 08:25:13;;;;;;;2.60;0.70;;;9.30;99.90;;;;;;5092913;28;20286;-88
2021/12/01 08:27:39;;;;;;;1.33;0.80;;;9.30;99.90;;;;;;5074883;28;20102;-87
2021/12/01 08:30:06;;;;;;;5.57;2.07;;;9.20;99.90;;;;;;5074530;28;20054;-88
2021/12/01 08:32:32;;;;;;;3.40;1.20;;;9.30;99.90;;;;;;5057858;28;20123;-88
2021/12/01 08:34:59;;;;;;;1.20;0.60;;;9.30;99.90;;;;;;5054330;28;20466;-90
2021/12/01 08:37:24;;;;;;;1.07;0.60;;;9.30;99.90;;;;;;5055538;28;20045;-88
2021/12/01 08:39:51;;;;;;;0.97;0.63;;;9.20;99.90;;;;;;5064824;28;20404;-86
2021/12/01 08:42:19;;;;;;;1.40;0.60;;;9.20;99.90;;;;;;5066023;28;20039;-87
2021/12/01 08:44:48;;;;;;;1.80;0.70;;;9.20;99.90;;;;;;5062052;28;20533;-84
2021/12/01 08:47:15;;;;;;;0.70;0.70;;;9.20;99.90;;;;;;5061338;28;20028;-89
2021/12/01 08:49:41;;;;;;;1.03;0.50;;;9.20;99.90;;;;;;5076056;28;20028;-86
2021/12/01 08:52:08;;;;;;;1.57;0.80;;;9.20;99.90;;;;;;5053136;28;20029;-88
2021/12/01 08:54:34;;;;;;;3.13;0.93;;;9.30;99.90;;;;;;5071552;28;20508;-87
2021/12/01 08:57:00;;;;;;;1.33;0.70;;;9.20;99.90;;;;;;5055182;28;20507;-87
2021/12/01 08:59:26;;;;;;;2.33;1.00;;;9.30;99.90;;;;;;5084829;28;20032;-87
2021/12/01 09:01:52;;;;;;;2.53;0.83;;;9.40;99.90;;;;;;5068214;28;20032;-86
2021/12/01 09:04:19;;;;;;;1.67;0.80;;;9.40;99.90;;;;;;5068002;28;20031;-89
2021/12/01 09:06:45;;;;;;;1.73;0.60;;;9.40;99.90;;;;;;5055501;28;20035;-88
2021/12/01 09:09:18;;;;;;;2.43;1.13;;;9.40;99.90;;;;;;5059582;28;20142;-88
2021/12/01 09:11:44;;;;;;;2.60;0.83;;;9.40;99.90;;;;;;5060653;28;20035;-87
2021/12/01 09:14:10;;;;;;;1.60;0.70;;;9.40;99.90;;;;;;5065011;28;20063;-89
2021/12/01 09:16:36;;;;;;;2.17;1.00;;;9.40;99.90;;;;;;5051434;28;20063;-89
2021/12/01 09:19:02;;;;;;;3.23;0.83;;;9.50;99.90;;;;;;5060006;28;20040;-90
2021/12/01 09:21:28;;;;;;;3.43;1.20;;;9.50;99.90;;;;;;5044619;28;20028;-90
2021/12/01 09:23:54;;;;;;;4.77;1.20;;;9.50;99.90;;;;;;5053012;28;20334;-90
2021/12/01 09:26:19;;;;;;;3.97;1.80;;;9.40;99.90;;;;;;5060161;28;20469;-89
2021/12/01 09:28:45;;;;;;;5.13;1.73;;;9.40;99.90;;;;;;5051416;28;20025;-91
2021/12/01 09:31:11;;;;;;;3.70;1.30;;;9.40;99.90;;;;;;5058757;28;20507;-90
2021/12/01 09:33:37;;;;;;;3.20;1.00;;;9.40;99.90;;;;;;5059729;28;20112;-90
2021/12/01 09:36:03;;;;;;;2.00;0.80;;;9.50;99.90;;;;;;5063327;28;20105;-90
2021/12/01 09:38:29;;;;;;;3.97;1.00;;;9.40;99.90;;;;;;5063305;28;20032;-90
2021/12/01 09:40:57;;;;;;;2.07;0.90;;;9.50;99.90;;;;;;5047271;28;20036;-90
2021/12/01 09:43:26;;;;;;;2.13;0.80;;;9.50;99.90;;;;;;5044102;28;20083;-91
2021/12/01 09:45:55;;;;;;;1.10;0.57;;;9.50;99.90;;;;;;5052040;28;20028;-90
2021/12/01 09:48:22;;;;;;;2.10;0.90;;;9.40;99.90;;;;;;5052051;28;20305;-89
2021/12/01 09:50:48;;;;;;;1.90;0.83;;;9.40;99.90;;;;;;5062317;28;20036;-89
2021/12/01 09:53:14;;;;;;;1.80;0.90;;;9.50;99.90;;;;;;5056318;28;20350;-90
2021/12/01 09:55:41;;;;;;;1.97;0.90;;;9.40;99.90;;;;;;5054234;28;20469;-89
2021/12/01 09:58:11;;;;;;;1.47;0.60;;;9.40;99.90;;;;;;5049575;28;20478;-89
2021/12/01 10:00:40;;;;;;;2.70;1.07;;;9.30;99.90;;;;;;5059421;28;20032;-90
2021/12/01 10:03:06;;;;;;;;;;;9.40;99.90;;;;;;5055074;28;20039;-90
2021/12/01 10:06:04;;;;;;;4.70;1.60;;;9.40;99.90;;;;;;5053541;28;20377;-90
2021/12/01 10:08:38;;;;;;;4.77;1.20;;;9.40;99.90;;;;;;5063873;28;20028;-90
2021/12/01 10:11:11;;;;;;;4.33;1.10;;;9.40;99.90;;;;;;5057695;28;20077;-89
2021/12/01 10:13:40;;;;;;;3.30;1.30;;;9.40;99.90;;;;;;5052536;28;20481;-90
2021/12/01 10:16:09;;;;;;;3.88;1.40;;;9.40;99.90;;;;;;5058029;28;20062;-90
2021/12/01 10:18:40;;;;;;;4.55;1.50;;;9.40;99.90;;;;;;5049848;28;20426;-90
2021/12/01 10:21:10;;;;;;;2.93;1.30;;;9.40;99.90;;;;;;5050553;28;20036;-90
2021/12/01 10:23:40;;;;;;;3.63;1.60;;;9.40;99.90;;;;;;5050062;28;20052;-90
2021/12/01 10:26:10;;;;;;;;;;;9.40;99.90;;;;;;5054258;28;20024;-90
2021/12/01 10:29:00;;;;;;;4.17;1.83;;;9.40;99.90;;;;;;5062234;28;19987;-90
2021/12/01 10:31:41;;;;;;;2.53;1.20;;;9.40;99.90;;;;;;5043709;28;20086;-90
2021/12/01 10:34:24;;;;;;;2.93;1.30;;;9.40;99.90;;;;;;5064866;28;20114;-90
2021/12/01 10:37:10;;;;;;;3.07;0.70;;;9.40;99.90;;;;;;5059767;28;20435;-91
2021/12/01 10:39:42;;;;;;;4.23;1.20;;;9.50;99.90;;;;;;5060692;28;20055;-90
2021/12/01 10:42:11;;;;;;;2.47;1.10;;;9.50;99.90;;;;;;5058387;28;20115;-90
2021/12/01 10:44:37;;;;;;;;;;;9.50;99.90;;;;;;5064497;28;20035;-90
2021/12/01 10:47:11;;;;;;;1.80;0.70;;;9.50;99.90;;;;;;5049498;28;20043;-90
2021/12/01 10:49:43;;;;;;;3.00;1.10;;;9.40;99.90;;;;;;5055923;28;20040;-90
2021/12/01 10:52:33;;;;;;;3.00;1.20;;;9.50;99.90;;;;;;5063358;28;20044;-90
2021/12/01 10:55:11;;;;;;;5.70;2.10;;;9.50;99.90;;;;;;5064773;28;20115;-90
2021/12/01 10:57:42;;;;;;;5.07;2.30;;;9.40;99.90;;;;;;5059360;28;20097;-90
2021/12/01 11:00:22;;;;;;;5.00;2.20;;;9.50;99.90;;;;;;5059440;28;20035;-89
2021/12/01 11:02:50;;;;;;;3.70;1.87;;;9.50;99.90;;;;;;5051941;28;20169;-90
2021/12/01 11:05:31;;;;;;;3.97;1.70;;;9.50;99.90;;;;;;5058876;28;20032;-90
2021/12/01 11:08:13;;;;;;;3.40;1.30;;;9.50;99.90;;;;;;5058429;28;20024;-91
2021/12/01 11:10:40;;;;;;;3.70;2.07;;;9.50;99.90;;;;;;5052047;28;20036;-88
2021/12/01 11:13:07;;;;;;;4.53;2.10;;;9.40;99.90;;;;;;5065608;28;20124;-90
2021/12/01 11:15:44;;;;;;;3.10;1.67;;;9.50;99.90;;;;;;5066006;28;20040;-89
2021/12/01 11:18:20;;;;;;;2.93;1.53;;;9.50;99.90;;;;;;5062130;28;20123;-89
2021/12/01 11:20:48;;;;;;;3.80;1.80;;;9.50;99.90;;;;;;5063340;28;20036;-90
2021/12/01 11:23:33;;;;;;;3.47;1.30;;;9.40;99.90;;;;;;5043881;28;20124;-90
2021/12/01 11:26:13;;;;;;;2.53;1.00;;;9.50;99.90;;;;;;5064841;28;20314;-88
2021/12/01 11:28:51;;;;;;;3.50;1.20;;;9.50;99.90;;;;;;5044008;28;21320;-90
2021/12/01 11:31:22;;;;;;;2.17;1.20;;;9.60;99.90;;;;;;5065369;28;20028;-90
2021/12/01 11:33:52;;;;;;;2.60;1.10;;;9.60;99.90;;;;;;5052007;28;20033;-90
2021/12/01 11:36:21;;;;;;;3.00;1.07;;;9.70;99.90;;;;;;5054641;28;20024;-87
2021/12/01 11:38:59;;;;;;;3.75;1.42;;;9.60;99.90;;;;;;5057757;28;20031;-89
2021/12/01 11:41:28;;;;;;;2.10;1.00;;;9.60;99.90;;;;;;5063104;28;20039;-87
2021/12/01 11:43:54;;;;;;;2.50;1.00;;;9.50;99.90;;;;;;5055675;28;20042;-90
2021/12/01 11:46:20;;;;;;;3.67;1.00;;;9.50;99.90;;;;;;5044362;28;20028;-90
2021/12/01 11:48:49;;;;;;;6.20;1.20;;;9.40;99.90;;;;;;5058842;28;20028;-89
2021/12/01 11:51:30;;;;;;;3.90;1.25;;;9.30;99.90;;;;;;5052742;28;20016;-89
2021/12/01 11:54:13;;;;;;;6.00;1.40;;;9.20;99.90;;;;;;5082052;28;20489;-89
2021/12/01 11:56:55;;;;;;;6.83;1.80;;;9.00;99.90;;;;;;5047449;28;20036;-89
2021/12/01 11:59:27;;;;;;;5.23;2.07;;;9.00;99.90;;;;;;5062384;28;20028;-87
2021/12/01 12:02:00;;;;;;;7.80;2.10;;;9.10;99.90;;;;;;5053835;28;20121;-90
2021/12/01 12:04:37;;;;;;;4.30;1.60;;;9.30;99.90;;;;;;5043459;28;20426;-88
2021/12/01 12:07:12;;;;;;;8.03;1.70;;;9.50;99.90;;;;;;5044383;28;20817;-89
2021/12/01 12:09:38;;;;;;;6.37;1.53;;;9.50;99.90;;;;;;5048158;28;20029;-88
2021/12/01 12:12:17;;;;;;;4.40;1.20;;;9.40;99.90;;;;;;5060892;28;20033;-88
2021/12/01 12:14:45;;;;;;;4.70;1.10;;;9.30;99.90;;;;;;5046002;28;20477;-89
2021/12/01 12:17:16;;;;;;;4.50;1.73;;;9.30;99.90;;;;;;5056258;28;20326;-88
2021/12/01 12:20:09;;;;;;;4.47;1.10;;;9.30;99.90;;;;;;5055070;28;20040;-89
2021/12/01 12:22:37;;;;;;;3.17;1.13;;;9.20;99.90;;;;;;5050625;28;20033;-89
2021/12/01 12:25:08;;;;;;;5.20;1.65;;;9.20;99.90;;;;;;5055245;28;20123;-89
2021/12/01 12:27:35;;;;;;;4.10;1.20;;;9.20;99.90;;;;;;5049380;28;20085;-88
2021/12/01 12:30:07;;;;;;;5.13;1.27;;;9.20;99.90;;;;;;5055679;28;20323;-89
2021/12/01 12:32:34;;;;;;;4.90;1.40;;;9.20;99.90;;;;;;5065720;28;20041;-88
2021/12/01 12:35:04;;;;;;;3.93;1.23;;;9.20;99.90;;;;;;5055562;28;20036;-89
2021/12/01 12:37:33;;;;;;;4.63;1.57;;;9.20;99.90;;;;;;5056302;28;20056;-89
2021/12/01 12:40:02;;;;;;;11.00;3.47;;;9.30;99.90;;;;;;5063981;28;20032;-89
2021/12/01 12:42:28;;;;;;;6.78;2.30;;;9.20;99.90;;;;;;5052929;28;20443;-88
2021/12/01 12:44:56;;;;;;;5.60;1.23;;;9.20;99.90;;;;;;5061795;28;20088;-89
2021/12/01 12:47:27;;;;;;;5.60;1.40;;;9.20;99.90;;;;;;5053516;28;20097;-88
2021/12/01 12:49:56;;;;;;;6.27;1.10;;;9.20;99.90;;;;;;5053571;28;20041;-91
2021/12/01 12:52:24;;;;;;;7.43;1.05;;;9.10;99.90;;;;;;5058614;28;20401;-89
2021/12/01 12:54:52;;;;;;;6.55;1.40;;;9.20;99.90;;;;;;5060272;28;20545;-88
2021/12/01 12:57:18;;;;;;;5.93;1.37;;;9.10;99.90;;;;;;5060748;28;20136;-89
2021/12/01 12:59:44;;;;;;;7.00;1.50;;;9.20;99.90;;;;;;5075484;28;20043;-90
2021/12/01 13:02:09;;;;;;;4.80;1.00;;;9.20;99.90;;;;;;5054851;28;20021;-89
2021/12/01 13:04:47;;;;;;;4.13;0.80;;;9.20;99.90;;;;;;5054961;28;20662;-90
2021/12/01 13:07:42;;;;;;;5.53;1.10;;;9.20;99.90;;;;;;5058161;28;20177;-89
2021/12/01 13:10:14;;;;;;;6.03;1.00;;;9.20;99.90;;;;;;5042334;28;20070;-90